Time;durP1;ratioP1;P1;durP2;ratioP2;P2;SDS_P1;SDS_P2;PMS_P1;PMS_P2;Temp;Humidity;BMP_temperature;BMP_pressure;BME280_temperature;BME280_humidity;BME280_pressure;Samples;Min_cycle;Max_cycle;Signal;HPM_P1;HPM_P2
2023/04/29 00:00:35;;;;;;;0.20;0.20;;;8.10;99.90;;;;;;5051023;28;20627;-86
2023/04/29 00:03:01;;;;;;;0.20;0.20;;;8.20;99.90;;;;;;5046757;28;20192;-87
2023/04/29 00:05:26;;;;;;;0.20;0.20;;;8.10;99.90;;;;;;5044114;28;20202;-86
2023/04/29 00:07:52;;;;;;;0.20;0.20;;;8.10;99.90;;;;;;5051360;28;20221;-84
2023/04/29 00:10:18;;;;;;;0.20;0.20;;;8.10;99.90;;;;;;5042839;28;20186;-86
2023/04/29 00:12:43;;;;;;;0.20;0.20;;;8.20;99.90;;;;;;5050686;28;20203;-86
2023/04/29 00:15:09;;;;;;;0.20;0.20;;;8.10;99.90;;;;;;5048448;28;20218;-86
2023/04/29 00:17:35;;;;;;;0.20;0.20;;;8.10;99.90;;;;;;5042449;28;20203;-86
2023/04/29 00:20:01;;;;;;;0.30;0.30;;;8.10;99.90;;;;;;5033386;28;21061;-84
2023/04/29 00:22:27;;;;;;;0.20;0.20;;;8.10;99.90;;;;;;5037932;28;20186;-86
2023/04/29 00:24:53;;;;;;;0.20;0.20;;;8.00;99.90;;;;;;5042161;28;20968;-86
2023/04/29 00:27:18;;;;;;;0.20;0.20;;;8.10;99.90;;;;;;5043252;28;20226;-86
2023/04/29 00:29:44;;;;;;;0.20;0.20;;;8.00;99.90;;;;;;5050066;28;20193;-87
2023/04/29 00:32:10;;;;;;;0.20;0.20;;;8.00;99.90;;;;;;5033549;28;20277;-87
2023/04/29 00:34:35;;;;;;;0.30;0.30;;;7.90;99.90;;;;;;5028597;28;20191;-86
2023/04/29 00:37:01;;;;;;;0.20;0.20;;;7.90;99.90;;;;;;5041607;28;20552;-86
2023/04/29 00:39:26;;;;;;;0.20;0.20;;;7.90;99.90;;;;;;5037999;28;20687;-87
2023/04/29 00:41:52;;;;;;;0.20;0.20;;;7.90;99.90;;;;;;5037033;28;20227;-86
2023/04/29 00:44:17;;;;;;;0.20;0.20;;;7.90;99.90;;;;;;5040505;28;20643;-86
2023/04/29 00:46:43;;;;;;;0.20;0.20;;;7.80;99.90;;;;;;5032577;28;20179;-86
2023/04/29 00:49:11;;;;;;;0.30;0.30;;;7.90;99.90;;;;;;5034278;28;20796;-85
2023/04/29 00:51:37;;;;;;;0.30;0.30;;;7.80;99.90;;;;;;5039975;28;20190;-86
2023/04/29 00:54:03;;;;;;;0.30;0.30;;;7.70;99.90;;;;;;5043924;28;20449;-86
2023/04/29 00:56:32;;;;;;;0.20;0.20;;;7.80;99.90;;;;;;5049301;28;20440;-86
2023/04/29 00:59:00;;;;;;;0.20;0.20;;;7.60;99.90;;;;;;5045928;28;20484;-86
2023/04/29 01:01:27;;;;;;;0.20;0.20;;;7.70;99.90;;;;;;5041858;28;20441;-86
2023/04/29 01:03:53;;;;;;;0.30;0.30;;;7.50;99.90;;;;;;5063408;28;20453;-86
2023/04/29 01:06:19;;;;;;;0.20;0.20;;;7.60;99.90;;;;;;5038177;28;20833;-87
2023/04/29 01:09:03;;;;;;;0.20;0.20;;;7.50;99.90;;;;;;5049701;28;20445;-86
2023/04/29 01:11:36;;;;;;;0.20;0.20;;;7.60;99.90;;;;;;5048118;28;20186;-86
2023/04/29 01:14:03;;;;;;;0.30;0.30;;;7.50;99.90;;;;;;5029559;28;20426;-87
2023/04/29 01:16:50;;;;;;;0.20;0.20;;;7.40;99.90;;;;;;5040983;28;20440;-86
2023/04/29 01:19:49;;;;;;;0.30;0.30;;;7.50;99.90;;;;;;5039226;28;20482;-86
2023/04/29 01:22:16;;;;;;;0.20;0.20;;;7.40;99.90;;;;;;5033776;28;21039;-86
2023/04/29 01:24:42;;;;;;;0.30;0.30;;;7.40;99.90;;;;;;5033507;28;20445;-86
2023/04/29 01:27:15;;;;;;;0.23;0.23;;;7.40;99.90;;;;;;5029673;28;20445;-86
2023/04/29 01:30:00;;;;;;;0.20;0.20;;;7.40;99.90;;;;;;5032359;28;20237;-86
2023/04/29 01:32:38;;;;;;;0.30;0.30;;;7.30;99.90;;;;;;5033259;28;20518;-86
2023/04/29 01:35:19;;;;;;;0.20;0.20;;;7.30;99.90;;;;;;5032321;28;20446;-87
2023/04/29 01:38:08;;;;;;;0.30;0.30;;;7.30;99.90;;;;;;5044112;28;20593;-85
2023/04/29 01:40:58;;;;;;;0.30;0.30;;;7.30;99.90;;;;;;5042752;28;21036;-87
2023/04/29 01:43:27;;;;;;;0.30;0.30;;;7.20;99.90;;;;;;5040406;28;20478;-87
2023/04/29 01:45:55;;;;;;;0.20;0.20;;;7.20;99.90;;;;;;5044246;28;20464;-86
2023/04/29 01:48:21;;;;;;;0.20;0.20;;;7.10;99.90;;;;;;5034290;28;20434;-85
2023/04/29 01:50:47;;;;;;;0.30;0.30;;;7.00;99.90;;;;;;5052423;28;20453;-85
2023/04/29 01:53:12;;;;;;;0.20;0.20;;;7.00;99.90;;;;;;5039304;28;20464;-86
2023/04/29 01:55:38;;;;;;;0.20;0.20;;;7.00;99.90;;;;;;5031801;28;20550;-85
2023/04/29 01:58:03;;;;;;;0.30;0.30;;;7.00;99.90;;;;;;5028643;28;20233;-86
2023/04/29 02:00:29;;;;;;;0.30;0.30;;;6.90;99.90;;;;;;5051136;28;20187;-85
2023/04/29 02:02:54;;;;;;;0.27;0.27;;;6.80;99.90;;;;;;5035828;28;20219;-86
2023/04/29 02:05:20;;;;;;;0.30;0.30;;;6.80;99.90;;;;;;5047969;28;20183;-86
2023/04/29 02:07:46;;;;;;;0.30;0.30;;;6.80;99.90;;;;;;5042357;28;20229;-85
2023/04/29 02:10:12;;;;;;;0.30;0.30;;;6.80;99.90;;;;;;5027430;28;20191;-87
2023/04/29 02:12:38;;;;;;;0.20;0.20;;;6.80;99.90;;;;;;5034153;28;20444;-87
2023/04/29 02:15:04;;;;;;;0.30;0.30;;;6.90;99.90;;;;;;5041508;28;20179;-86
2023/04/29 02:17:29;;;;;;;0.30;0.30;;;6.80;99.90;;;;;;5033458;28;20297;-87
2023/04/29 02:19:55;;;;;;;0.30;0.30;;;6.80;99.90;;;;;;5047662;28;20449;-87
2023/04/29 02:22:20;;;;;;;0.30;0.30;;;6.80;99.90;;;;;;5044544;28;20179;-87
2023/04/29 02:24:46;;;;;;;0.30;0.30;;;6.70;99.90;;;;;;5050224;28;20182;-88
2023/04/29 02:27:12;;;;;;;0.30;0.30;;;6.70;99.90;;;;;;5041078;28;20179;-86
2023/04/29 02:29:37;;;;;;;0.30;0.30;;;6.70;99.90;;;;;;5031219;28;20186;-87
2023/04/29 02:32:03;;;;;;;0.30;0.30;;;6.60;99.90;;;;;;5041444;28;20184;-87
2023/04/29 02:34:30;;;;;;;0.30;0.30;;;6.60;99.90;;;;;;5027997;28;20230;-86
2023/04/29 02:36:56;;;;;;;0.30;0.30;;;6.70;99.90;;;;;;5045351;28;20422;-87
2023/04/29 02:39:22;;;;;;;0.30;0.30;;;6.70;99.90;;;;;;5035286;28;20532;-87
2023/04/29 02:41:48;;;;;;;0.30;0.30;;;6.70;99.90;;;;;;5030855;28;20242;-86
2023/04/29 02:44:13;;;;;;;0.30;0.30;;;6.80;99.90;;;;;;5034917;28;20192;-87
2023/04/29 02:46:44;;;;;;;0.30;0.30;;;6.80;99.90;;;;;;5043191;28;20215;-86
2023/04/29 02:49:09;;;;;;;0.30;0.30;;;6.90;99.90;;;;;;5036909;28;20195;-86
2023/04/29 02:51:35;;;;;;;0.30;0.30;;;6.90;99.90;;;;;;5032370;28;20449;-87
2023/04/29 02:54:01;;;;;;;0.30;0.30;;;6.90;99.90;;;;;;5039667;28;20188;-87
2023/04/29 02:56:27;;;;;;;0.30;0.30;;;6.80;99.90;;;;;;5047998;28;20185;-88
2023/04/29 02:58:52;;;;;;;0.30;0.30;;;6.90;99.90;;;;;;5032426;28;20682;-87
2023/04/29 03:01:17;;;;;;;0.27;0.27;;;6.90;99.90;;;;;;5040134;28;20187;-87
2023/04/29 03:03:43;;;;;;;0.30;0.30;;;6.90;99.90;;;;;;5044985;28;20923;-88
2023/04/29 03:06:09;;;;;;;0.30;0.30;;;6.80;99.90;;;;;;5039825;28;20249;-87
2023/04/29 03:08:34;;;;;;;0.20;0.20;;;6.80;99.90;;;;;;5036925;28;20565;-86
2023/04/29 03:11:00;;;;;;;0.30;0.30;;;6.80;99.90;;;;;;5037977;28;20269;-87
2023/04/29 03:13:25;;;;;;;0.30;0.30;;;6.80;99.90;;;;;;5042727;28;20189;-87
2023/04/29 03:15:51;;;;;;;0.20;0.20;;;6.80;99.90;;;;;;5043481;28;20225;-86
2023/04/29 03:18:17;;;;;;;0.30;0.30;;;6.80;99.90;;;;;;5031656;28;20265;-87
2023/04/29 03:20:42;;;;;;;0.20;0.20;;;6.90;99.90;;;;;;5039898;28;20189;-87
2023/04/29 03:23:07;;;;;;;0.30;0.30;;;6.90;99.90;;;;;;5041241;28;20191;-86
2023/04/29 03:25:33;;;;;;;0.20;0.20;;;6.80;99.90;;;;;;5037529;28;20183;-87
2023/04/29 03:27:58;;;;;;;0.30;0.30;;;6.80;99.90;;;;;;5032699;28;20558;-87
2023/04/29 03:30:24;;;;;;;0.30;0.30;;;6.80;99.90;;;;;;5039976;28;20222;-86
2023/04/29 03:32:50;;;;;;;0.20;0.20;;;6.80;99.90;;;;;;5048228;28;20191;-86
2023/04/29 03:35:15;;;;;;;0.30;0.30;;;6.80;99.90;;;;;;5050090;28;20230;-86
2023/04/29 03:37:43;;;;;;;0.30;0.30;;;6.80;99.90;;;;;;5052480;28;20206;-86
2023/04/29 03:40:09;;;;;;;0.30;0.30;;;6.80;99.90;;;;;;5038442;28;20665;-87
2023/04/29 03:42:34;;;;;;;0.20;0.20;;;6.80;99.90;;;;;;5047748;28;20477;-85
2023/04/29 03:45:00;;;;;;;0.30;0.30;;;6.90;99.90;;;;;;5037634;28;20433;-85
2023/04/29 03:47:26;;;;;;;0.20;0.20;;;7.00;99.90;;;;;;5047403;28;20656;-85
2023/04/29 03:49:52;;;;;;;0.30;0.30;;;6.90;99.90;;;;;;5048383;28;20441;-86
2023/04/29 03:52:17;;;;;;;0.30;0.30;;;7.00;99.90;;;;;;5052634;28;20186;-86
2023/04/29 03:54:43;;;;;;;0.30;0.30;;;6.90;99.90;;;;;;5052509;28;20444;-86
2023/04/29 03:57:08;;;;;;;0.30;0.30;;;7.00;99.90;;;;;;5071317;28;20839;-86
2023/04/29 03:59:34;;;;;;;0.30;0.30;;;7.00;99.90;;;;;;5041438;28;20695;-85
2023/04/29 04:01:59;;;;;;;0.30;0.30;;;7.00;99.90;;;;;;5031652;28;20195;-85
2023/04/29 04:04:25;;;;;;;0.30;0.30;;;7.10;99.90;;;;;;5047775;28;20270;-86
2023/04/29 04:06:51;;;;;;;0.20;0.20;;;7.10;99.90;;;;;;5041395;28;20179;-86
2023/04/29 04:09:19;;;;;;;0.30;0.30;;;7.10;99.90;;;;;;5034772;28;20183;-86
2023/04/29 04:11:45;;;;;;;0.30;0.30;;;7.20;99.90;;;;;;5047595;28;20200;-85
2023/04/29 04:14:11;;;;;;;0.30;0.30;;;7.20;99.90;;;;;;5035329;28;20537;-86
2023/04/29 04:16:36;;;;;;;0.20;0.20;;;7.20;99.90;;;;;;5056513;28;20216;-85
2023/04/29 04:19:02;;;;;;;0.30;0.30;;;7.20;99.90;;;;;;5045831;28;20245;-85
2023/04/29 04:21:28;;;;;;;0.20;0.20;;;7.20;99.90;;;;;;5029467;28;20188;-85
2023/04/29 04:23:54;;;;;;;0.30;0.30;;;7.30;99.90;;;;;;5049922;28;20199;-86
2023/04/29 04:26:20;;;;;;;0.30;0.30;;;7.30;99.90;;;;;;5048264;28;20468;-86
2023/04/29 04:28:46;;;;;;;0.30;0.30;;;7.40;99.90;;;;;;5045431;28;20203;-86
2023/04/29 04:31:14;;;;;;;0.30;0.30;;;7.40;99.90;;;;;;5039810;28;20454;-87
2023/04/29 04:33:40;;;;;;;0.23;0.23;;;7.40;99.90;;;;;;5035040;28;20187;-86
2023/04/29 04:36:06;;;;;;;0.20;0.20;;;7.50;99.90;;;;;;5035016;28;20778;-86
2023/04/29 04:38:32;;;;;;;0.20;0.20;;;7.40;99.90;;;;;;5043248;28;20481;-87
2023/04/29 04:40:57;;;;;;;0.30;0.30;;;7.40;99.90;;;;;;5042642;28;20900;-87
2023/04/29 04:43:23;;;;;;;0.20;0.20;;;7.50;99.90;;;;;;5049395;28;20622;-84
2023/04/29 04:45:49;;;;;;;0.20;0.20;;;7.50;99.90;;;;;;5047660;28;20192;-86
2023/04/29 04:48:14;;;;;;;0.30;0.30;;;7.50;99.90;;;;;;5036961;28;20199;-86
2023/04/29 04:50:40;;;;;;;0.20;0.20;;;7.60;99.90;;;;;;5050226;28;20282;-87
2023/04/29 04:53:05;;;;;;;0.20;0.20;;;7.60;99.90;;;;;;5040979;28;20191;-86
2023/04/29 04:55:32;;;;;;;0.30;0.30;;;7.60;99.90;;;;;;5038222;28;20275;-86
2023/04/29 04:57:58;;;;;;;0.30;0.30;;;7.60;99.90;;;;;;5051361;28;20302;-86
2023/04/29 05:00:23;;;;;;;0.20;0.20;;;7.60;99.90;;;;;;5035522;28;20528;-87
2023/04/29 05:02:49;;;;;;;0.30;0.30;;;7.60;99.90;;;;;;5035985;28;20187;-86
2023/04/29 05:05:14;;;;;;;0.30;0.30;;;7.60;99.90;;;;;;5041185;28;20186;-85
2023/04/29 05:07:40;;;;;;;0.30;0.30;;;7.70;99.90;;;;;;5043178;28;20215;-86
2023/04/29 05:10:07;;;;;;;0.30;0.30;;;7.70;99.90;;;;;;5047516;28;20685;-83
2023/04/29 05:12:34;;;;;;;0.30;0.30;;;7.80;99.90;;;;;;5042827;28;20764;-84
2023/04/29 05:14:59;;;;;;;0.20;0.20;;;7.80;99.90;;;;;;5032853;28;20448;-83
2023/04/29 05:17:25;;;;;;;0.20;0.20;;;7.80;99.90;;;;;;5031583;28;20574;-86
2023/04/29 05:19:51;;;;;;;0.20;0.20;;;7.90;99.90;;;;;;5039183;28;20200;-85
2023/04/29 05:22:16;;;;;;;0.30;0.30;;;7.90;99.90;;;;;;5033540;28;20210;-85
2023/04/29 05:24:42;;;;;;;0.30;0.30;;;7.90;99.90;;;;;;5029635;28;20223;-85
2023/04/29 05:27:07;;;;;;;0.20;0.20;;;8.00;99.90;;;;;;5036366;28;20701;-85
2023/04/29 05:29:33;;;;;;;0.20;0.20;;;8.10;99.90;;;;;;5032848;28;20214;-85
2023/04/29 05:31:59;;;;;;;0.20;0.20;;;8.10;99.90;;;;;;5028616;28;20250;-84
2023/04/29 05:34:25;;;;;;;0.20;0.20;;;8.10;99.90;;;;;;5037833;28;20175;-81
2023/04/29 05:36:50;;;;;;;0.20;0.20;;;8.20;99.90;;;;;;5036946;28;20659;-81
2023/04/29 05:39:16;;;;;;;0.20;0.20;;;8.20;99.90;;;;;;5037765;28;20480;-82
2023/04/29 05:41:42;;;;;;;0.20;0.20;;;8.20;99.90;;;;;;5045302;28;20281;-81
2023/04/29 05:44:07;;;;;;;0.30;0.30;;;8.30;99.90;;;;;;5053565;28;20264;-82
2023/04/29 05:46:33;;;;;;;0.20;0.20;;;8.30;99.90;;;;;;5044340;28;20186;-82
2023/04/29 05:48:58;;;;;;;0.20;0.20;;;8.40;99.90;;;;;;5052454;28;20191;-82
2023/04/29 05:51:24;;;;;;;0.20;0.20;;;8.50;99.90;;;;;;5036036;28;20281;-82
2023/04/29 05:53:50;;;;;;;0.20;0.20;;;8.50;99.90;;;;;;5033444;28;20187;-83
2023/04/29 05:56:16;;;;;;;0.20;0.20;;;8.70;99.90;;;;;;5042466;28;20483;-84
2023/04/29 05:58:42;;;;;;;0.20;0.20;;;8.70;99.90;;;;;;5042717;28;20229;-84
2023/04/29 06:01:08;;;;;;;0.20;0.20;;;8.80;99.90;;;;;;5047562;28;20440;-83
2023/04/29 06:03:33;;;;;;;0.20;0.20;;;8.90;99.90;;;;;;5043269;28;20229;-80
2023/04/29 06:05:59;;;;;;;0.20;0.20;;;9.00;99.90;;;;;;5033389;28;20187;-83
2023/04/29 06:08:25;;;;;;;0.20;0.20;;;9.10;99.90;;;;;;5041700;28;20590;-81
2023/04/29 06:10:51;;;;;;;0.20;0.20;;;9.20;99.90;;;;;;5046466;28;20185;-82
2023/04/29 06:13:16;;;;;;;0.20;0.20;;;9.30;99.90;;;;;;5039658;28;20437;-82
2023/04/29 06:15:42;;;;;;;0.20;0.20;;;9.40;99.90;;;;;;5036972;28;20277;-82
2023/04/29 06:18:08;;;;;;;0.20;0.20;;;9.30;99.90;;;;;;5040006;28;20302;-83
2023/04/29 06:20:33;;;;;;;0.20;0.20;;;9.40;99.90;;;;;;5045060;28;20205;-83
2023/04/29 06:22:59;;;;;;;0.20;0.20;;;9.50;99.90;;;;;;5046631;28;20674;-83
2023/04/29 06:25:24;;;;;;;0.20;0.20;;;9.60;99.90;;;;;;5045734;28;20232;-82
2023/04/29 06:27:50;;;;;;;0.20;0.20;;;9.70;99.90;;;;;;5033940;28;20840;-84
2023/04/29 06:30:15;;;;;;;0.20;0.20;;;9.70;99.90;;;;;;5037183;28;20182;-83
2023/04/29 06:32:41;;;;;;;0.20;0.20;;;9.80;99.90;;;;;;5038983;28;20189;-83
2023/04/29 06:35:07;;;;;;;0.20;0.20;;;9.70;99.90;;;;;;5030902;28;20195;-82
2023/04/29 06:37:33;;;;;;;0.20;0.20;;;9.70;99.90;;;;;;5034664;28;20193;-83
2023/04/29 06:39:58;;;;;;;0.20;0.20;;;9.70;99.90;;;;;;5032758;28;20552;-85
2023/04/29 06:42:24;;;;;;;0.20;0.20;;;9.70;99.90;;;;;;5035878;28;20480;-86
2023/04/29 06:44:49;;;;;;;0.20;0.20;;;9.80;99.90;;;;;;5037619;28;20222;-84
2023/04/29 06:47:15;;;;;;;0.20;0.20;;;10.00;99.90;;;;;;5030121;28;20628;-84
2023/04/29 06:49:42;;;;;;;0.20;0.20;;;10.00;99.90;;;;;;5045423;28;20193;-84
2023/04/29 06:52:08;;;;;;;0.20;0.20;;;10.00;99.90;;;;;;5029692;28;20291;-84
2023/04/29 06:54:33;;;;;;;0.20;0.20;;;10.00;99.90;;;;;;5023663;28;20614;-83
2023/04/29 06:56:59;;;;;;;0.20;0.20;;;10.10;99.90;;;;;;5032563;28;20248;-82
2023/04/29 06:59:24;;;;;;;0.20;0.20;;;10.30;99.90;;;;;;5032103;28;20253;-82
2023/04/29 07:01:51;;;;;;;0.20;0.20;;;10.50;99.90;;;;;;5035019;28;20179;-82
2023/04/29 07:04:16;;;;;;;0.20;0.20;;;10.50;99.90;;;;;;5046983;28;20277;-82
2023/04/29 07:06:45;;;;;;;0.20;0.20;;;10.60;99.90;;;;;;5045647;28;20524;-82
2023/04/29 07:09:13;;;;;;;0.20;0.20;;;10.60;99.90;;;;;;5030253;28;20195;-82
2023/04/29 07:11:39;;;;;;;0.17;0.17;;;10.60;99.90;;;;;;5037503;28;20449;-82
2023/04/29 07:14:06;;;;;;;0.20;0.20;;;10.50;99.90;;;;;;5044812;28;20454;-82
2023/04/29 07:16:31;;;;;;;0.10;0.10;;;10.60;99.90;;;;;;5034891;28;20488;-82
2023/04/29 07:18:57;;;;;;;0.20;0.20;;;10.80;99.90;;;;;;5034537;28;20477;-82
2023/04/29 07:21:23;;;;;;;0.20;0.20;;;10.90;99.90;;;;;;5032765;28;20191;-82
2023/04/29 07:23:48;;;;;;;0.10;0.10;;;11.10;99.90;;;;;;5041563;28;20195;-81
2023/04/29 07:26:16;;;;;;;0.10;0.10;;;11.00;99.90;;;;;;5037586;28;20595;-82
2023/04/29 07:28:43;;;;;;;0.20;0.20;;;11.10;99.90;;;;;;5045919;28;20553;-82
2023/04/29 07:31:10;;;;;;;0.10;0.10;;;11.00;99.90;;;;;;5042709;28;20442;-81
2023/04/29 07:33:36;;;;;;;0.10;0.10;;;11.10;99.90;;;;;;5044988;28;20445;-81
2023/04/29 07:36:03;;;;;;;0.20;0.20;;;11.10;99.90;;;;;;5039213;28;20469;-81
2023/04/29 07:38:28;;;;;;;0.10;0.10;;;11.30;99.90;;;;;;5044768;28;20221;-82
2023/04/29 07:40:54;;;;;;;0.20;0.20;;;11.40;99.90;;;;;;5036488;28;20444;-83
2023/04/29 07:43:20;;;;;;;0.10;0.10;;;11.50;99.90;;;;;;5035452;28;20230;-83
2023/04/29 07:45:46;;;;;;;0.10;0.10;;;11.70;99.90;;;;;;5031545;28;20179;-82
2023/04/29 07:48:11;;;;;;;0.10;0.10;;;11.60;99.90;;;;;;5032537;28;20504;-83
2023/04/29 07:50:37;;;;;;;0.10;0.10;;;11.70;99.90;;;;;;5036405;28;20190;-82
2023/04/29 07:53:03;;;;;;;0.10;0.10;;;11.60;99.90;;;;;;5046254;28;20715;-82
2023/04/29 07:55:31;;;;;;;0.20;0.20;;;11.90;99.90;;;;;;5037457;28;20190;-82
2023/04/29 07:57:57;;;;;;;0.10;0.10;;;12.20;99.90;;;;;;5048673;28;20194;-82
2023/04/29 08:00:23;;;;;;;0.10;0.10;;;12.10;99.90;;;;;;5039533;28;20451;-81
2023/04/29 08:02:52;;;;;;;0.20;0.20;;;12.10;99.90;;;;;;5041899;28;20190;-81
2023/04/29 08:05:20;;;;;;;0.10;0.10;;;12.10;99.90;;;;;;5037881;28;20456;-81
2023/04/29 08:07:46;;;;;;;0.10;0.10;;;12.20;99.90;;;;;;5042356;28;20469;-81
2023/04/29 08:10:11;;;;;;;0.10;0.10;;;12.20;99.90;;;;;;5050411;28;20451;-80
2023/04/29 08:12:40;;;;;;;0.10;0.10;;;12.20;99.90;;;;;;5037088;28;20437;-80
2023/04/29 08:15:06;;;;;;;0.10;0.10;;;12.10;99.90;;;;;;5034778;28;20238;-80
2023/04/29 08:17:32;;;;;;;0.10;0.10;;;12.10;99.90;;;;;;5043754;28;20469;-79
2023/04/29 08:19:57;;;;;;;0.10;0.10;;;12.10;99.90;;;;;;5045708;28;20477;-81
2023/04/29 08:22:23;;;;;;;0.10;0.10;;;12.00;99.90;;;;;;5040205;28;20191;-80
2023/04/29 08:24:48;;;;;;;0.20;0.20;;;12.10;99.90;;;;;;5051608;28;20190;-80
2023/04/29 08:27:14;;;;;;;0.10;0.10;;;12.20;99.90;;;;;;5045911;28;20179;-80
2023/04/29 08:29:40;;;;;;;0.10;0.10;;;12.10;99.90;;;;;;5034311;28;21078;-80
2023/04/29 08:32:06;;;;;;;0.10;0.10;;;12.10;99.90;;;;;;5034458;28;20233;-80
2023/04/29 08:34:32;;;;;;;0.10;0.10;;;12.10;99.90;;;;;;5046456;28;20945;-80
2023/04/29 08:36:58;;;;;;;0.10;0.10;;;12.40;99.90;;;;;;5051320;28;20183;-80
2023/04/29 08:39:24;;;;;;;0.10;0.10;;;12.50;99.90;;;;;;5054565;28;20479;-81
2023/04/29 08:41:50;;;;;;;0.10;0.10;;;12.50;99.90;;;;;;5053254;28;20229;-80
2023/04/29 08:44:17;;;;;;;0.10;0.10;;;12.70;99.90;;;;;;5035536;28;20442;-80
2023/04/29 08:46:46;;;;;;;0.10;0.10;;;13.00;99.90;;;;;;5031845;28;20421;-81
2023/04/29 08:49:12;;;;;;;0.10;0.10;;;13.20;99.90;;;;;;5031466;28;20437;-81
2023/04/29 08:51:38;;;;;;;0.10;0.10;;;13.20;99.90;;;;;;5040307;28;20487;-81
2023/04/29 08:54:03;;;;;;;0.10;0.10;;;13.30;99.90;;;;;;5050455;28;20446;-81
2023/04/29 08:56:30;;;;;;;0.10;0.10;;;13.70;99.90;;;;;;5031352;28;20183;-81
2023/04/29 08:58:57;;;;;;;0.10;0.10;;;14.10;99.90;;;;;;5049452;28;20237;-80
2023/04/29 09:01:26;;;;;;;0.10;0.10;;;14.40;99.90;;;;;;5047739;28;20450;-80
2023/04/29 09:04:07;;;;;;;0.10;0.10;;;14.80;99.90;;;;;;5051732;28;20418;-80
2023/04/29 09:06:33;;;;;;;0.10;0.10;;;14.50;99.90;;;;;;5039273;28;20434;-80
2023/04/29 09:09:00;;;;;;;0.10;0.10;;;14.70;99.90;;;;;;5042171;28;20446;-80
2023/04/29 09:11:27;;;;;;;0.10;0.10;;;14.80;99.90;;;;;;5031618;28;20264;-80
2023/04/29 09:13:59;;;;;;;0.10;0.10;;;14.50;99.90;;;;;;5039141;28;20448;-80
2023/04/29 09:16:24;;;;;;;0.10;0.10;;;14.50;99.90;;;;;;5036143;28;20440;-80
2023/04/29 09:18:51;;;;;;;0.10;0.10;;;14.90;99.90;;;;;;5048315;28;20493;-81
2023/04/29 09:21:16;;;;;;;0.10;0.10;;;14.80;99.90;;;;;;5053086;28;20178;-81
2023/04/29 09:23:42;;;;;;;0.10;0.10;;;15.10;99.90;;;;;;5034120;28;20488;-81
2023/04/29 09:26:08;;;;;;;0.10;0.10;;;15.20;99.90;;;;;;5040915;28;20211;-80
2023/04/29 09:28:33;;;;;;;0.10;0.10;;;15.90;99.90;;;;;;5041207;28;20201;-81
2023/04/29 09:31:05;;;;;;;0.10;0.10;;;15.80;99.90;;;;;;5036924;28;20183;-81
2023/04/29 09:33:31;;;;;;;0.10;0.10;;;16.10;99.90;;;;;;5044637;28;20216;-82
2023/04/29 09:35:56;;;;;;;0.10;0.10;;;16.20;99.90;;;;;;5036945;28;20430;-82
2023/04/29 09:38:22;;;;;;;0.10;0.10;;;16.50;99.90;;;;;;5031603;28;21107;-82
2023/04/29 09:40:47;;;;;;;0.10;0.10;;;16.60;99.90;;;;;;5034537;28;20186;-82
2023/04/29 09:43:17;;;;;;;0.10;0.10;;;16.50;99.90;;;;;;5034519;28;20234;-81
2023/04/29 09:45:45;;;;;;;0.10;0.10;;;16.30;99.90;;;;;;5036878;28;20178;-82
2023/04/29 09:48:11;;;;;;;0.10;0.10;;;17.00;99.90;;;;;;5042343;28;20544;-82
2023/04/29 09:50:38;;;;;;;0.10;0.10;;;17.00;99.90;;;;;;5046707;28;20469;-82
2023/04/29 09:53:07;;;;;;;0.10;0.10;;;17.20;99.90;;;;;;5035402;28;20930;-82
2023/04/29 09:55:34;;;;;;;0.10;0.10;;;17.60;99.90;;;;;;5050287;28;20457;-82
2023/04/29 09:58:00;;;;;;;0.10;0.10;;;17.40;99.90;;;;;;5038730;28;20489;-82
2023/04/29 10:00:31;;;;;;;0.10;0.10;;;17.60;99.90;;;;;;5048726;28;20444;-82
2023/04/29 10:02:58;;;;;;;0.10;0.10;;;16.80;99.90;;;;;;5049572;28;20178;-79
2023/04/29 10:05:27;;;;;;;0.10;0.10;;;16.40;99.90;;;;;;5049566;28;20449;-80
2023/04/29 10:07:54;;;;;;;0.10;0.10;;;16.50;99.90;;;;;;5032110;28;20537;-82
2023/04/29 10:10:21;;;;;;;0.10;0.10;;;17.50;99.90;;;;;;5049133;28;20535;-82
2023/04/29 10:12:48;;;;;;;0.10;0.10;;;18.10;99.90;;;;;;5038268;28;20445;-82
2023/04/29 10:15:27;;;;;;;0.10;0.10;;;18.10;99.90;;;;;;5039003;28;20436;-84
2023/04/29 10:18:17;;;;;;;0.10;0.10;;;18.70;99.90;;;;;;5033878;28;20473;-85
2023/04/29 10:20:46;;;;;;;0.10;0.10;;;18.40;99.90;;;;;;5039410;28;20448;-85
2023/04/29 10:23:13;;;;;;;0.10;0.10;;;18.80;99.90;;;;;;5045373;28;20430;-85
2023/04/29 10:25:41;;;;;;;0.10;0.00;;;18.80;99.90;;;;;;5046269;28;21184;-84
2023/04/29 10:28:12;;;;;;;0.10;0.10;;;18.70;99.90;;;;;;5040764;28;21251;-85
2023/04/29 10:30:38;;;;;;;0.10;0.10;;;18.50;99.90;;;;;;5033585;28;20438;-84
2023/04/29 10:33:06;;;;;;;0.10;0.10;;;19.00;99.90;;;;;;5036703;28;20452;-83
2023/04/29 10:35:32;;;;;;;0.10;0.10;;;17.30;99.90;;;;;;5030213;28;20807;-84
2023/04/29 10:38:00;;;;;;;0.10;0.00;;;18.00;99.90;;;;;;5039280;28;20478;-84
2023/04/29 10:40:35;;;;;;;0.10;0.00;;;18.10;99.90;;;;;;5043766;28;20504;-84
2023/04/29 10:43:01;;;;;;;0.10;0.10;;;18.30;99.90;;;;;;5053473;28;20534;-84
2023/04/29 10:45:30;;;;;;;0.00;0.00;;;18.00;99.90;;;;;;5043526;28;20545;-83
2023/04/29 10:48:02;;;;;;;0.00;0.00;;;17.80;99.90;;;;;;5048672;28;20781;-86
2023/04/29 10:50:32;;;;;;;0.00;0.00;;;19.20;99.90;;;;;;5044760;28;20845;-84
2023/04/29 10:53:01;;;;;;;0.00;0.00;;;18.80;99.90;;;;;;5032018;28;20444;-85
2023/04/29 10:55:26;;;;;;;0.00;0.00;;;20.30;99.90;;;;;;5034924;28;20452;-85
2023/04/29 10:57:55;;;;;;;0.00;0.00;;;;;;;;;;5051861;28;20460;-85
2023/04/29 11:00:28;;;;;;;0.00;0.00;;;;;;;;;;5041848;28;20195;-84
2023/04/29 11:02:54;;;;;;;0.00;0.00;;;;;;;;;;5032298;28;20441;-85
2023/04/29 11:05:34;;;;;;;0.00;0.00;;;;;;;;;;5037514;28;20477;-82
2023/04/29 11:08:22;;;;;;;0.00;0.00;;;17.40;99.90;;;;;;5039148;28;20444;-85
2023/04/29 11:10:52;;;;;;;0.00;0.00;;;18.60;99.90;;;;;;5041008;28;20444;-85
2023/04/29 11:13:22;;;;;;;0.00;0.00;;;17.90;99.90;;;;;;5046125;28;21127;-84
2023/04/29 11:15:48;;;;;;;0.00;0.00;;;18.30;99.90;;;;;;5028813;28;20482;-84
2023/04/29 11:18:13;;;;;;;0.00;0.00;;;18.50;99.90;;;;;;5041404;28;20980;-85
2023/04/29 11:21:07;;;;;;;0.00;0.00;;;18.40;99.90;;;;;;5043659;28;20637;-84
2023/04/29 11:23:43;;;;;;;0.00;0.00;;;17.70;99.90;;;;;;5047699;28;20225;-83
2023/04/29 11:26:09;;;;;;;0.00;0.00;;;18.10;99.90;;;;;;5045538;28;20444;-84
2023/04/29 11:28:35;;;;;;;0.00;0.00;;;18.70;99.90;;;;;;5049489;28;20417;-84
2023/04/29 11:31:02;;;;;;;0.00;0.00;;;18.20;99.90;;;;;;5040870;28;20187;-84
2023/04/29 11:33:31;;;;;;;0.00;0.00;;;18.20;99.90;;;;;;5050706;28;20256;-84
2023/04/29 11:35:57;;;;;;;0.00;0.00;;;;;;;;;;5036826;28;20443;-84
2023/04/29 11:38:26;;;;;;;0.00;0.00;;;19.40;99.90;;;;;;5050596;28;20478;-84
2023/04/29 11:40:54;;;;;;;0.00;0.00;;;;;;;;;;5047728;28;20460;-84
2023/04/29 11:43:21;;;;;;;0.00;0.00;;;17.90;99.90;;;;;;5041492;28;20489;-85
2023/04/29 11:45:50;;;;;;;0.00;0.00;;;17.30;99.90;;;;;;5038654;28;21036;-84
2023/04/29 11:48:19;;;;;;;0.00;0.00;;;17.20;99.90;;;;;;5037641;28;20526;-84
2023/04/29 11:50:48;;;;;;;0.00;0.00;;;17.90;99.90;;;;;;5037390;28;20481;-84
2023/04/29 11:53:14;;;;;;;0.00;0.00;;;18.60;99.90;;;;;;5045496;28;20481;-84
2023/04/29 11:55:44;;;;;;;0.00;0.00;;;19.50;99.90;;;;;;5032903;28;20445;-85
2023/04/29 11:58:10;;;;;;;0.00;0.00;;;19.50;99.90;;;;;;5034720;28;20218;-83
2023/04/29 12:00:36;;;;;;;0.00;0.00;;;20.10;99.90;;;;;;5029396;28;20856;-84
2023/04/29 12:03:12;;;;;;;0.00;0.00;;;20.50;99.90;;;;;;5039720;28;20460;-84
2023/04/29 12:05:37;;;;;;;0.00;0.00;;;19.90;99.90;;;;;;5050804;28;20473;-84
2023/04/29 12:08:05;;;;;;;0.00;0.00;;;18.40;99.90;;;;;;5047637;28;20536;-84
2023/04/29 12:10:31;;;;;;;0.00;0.00;;;18.30;99.90;;;;;;5034994;28;20280;-86
2023/04/29 12:12:57;;;;;;;0.00;0.00;;;19.10;99.90;;;;;;5039757;28;20459;-85
2023/04/29 12:15:23;;;;;;;0.00;0.00;;;19.80;99.90;;;;;;5042985;28;20225;-85
2023/04/29 12:17:49;;;;;;;0.00;0.00;;;21.20;99.90;;;;;;5044700;28;20535;-85
2023/04/29 12:20:14;;;;;;;0.00;0.00;;;20.10;99.90;;;;;;5042829;28;20238;-85
2023/04/29 12:22:42;;;;;;;0.00;0.00;;;20.90;99.90;;;;;;5044572;28;20187;-84
2023/04/29 12:25:08;;;;;;;0.00;0.00;;;19.50;99.90;;;;;;5036666;28;20186;-83
2023/04/29 12:27:35;;;;;;;0.00;0.00;;;19.50;99.90;;;;;;5032068;28;20865;-84
2023/04/29 12:30:01;;;;;;;0.00;0.00;;;20.10;99.90;;;;;;5033526;28;20460;-84
2023/04/29 12:32:26;;;;;;;0.00;0.00;;;21.00;99.90;;;;;;5028926;28;20446;-84
2023/04/29 12:34:52;;;;;;;0.00;0.00;;;20.70;99.90;;;;;;5039421;28;20195;-85
2023/04/29 12:37:17;;;;;;;0.00;0.00;;;21.40;99.90;;;;;;5043680;28;20758;-86
2023/04/29 12:39:43;;;;;;;0.00;0.00;;;21.30;97.70;;;;;;5037261;28;20222;-84
2023/04/29 12:42:17;;;;;;;0.00;0.00;;;21.40;95.70;;;;;;5045702;28;20240;-86
2023/04/29 12:44:47;;;;;;;0.00;0.00;;;19.60;99.70;;;;;;5040802;28;20194;-84
2023/04/29 12:47:13;;;;;;;0.00;0.00;;;20.20;98.70;;;;;;5032118;28;20438;-85
2023/04/29 12:49:43;;;;;;;0.00;0.00;;;19.70;99.90;;;;;;5036721;28;20805;-84
2023/04/29 12:52:09;;;;;;;0.00;0.00;;;19.30;99.90;;;;;;5032099;28;20462;-85
2023/04/29 12:54:36;;;;;;;0.00;0.00;;;17.40;99.90;;;;;;5036725;28;20444;-84